createdAt,value
2016-05-13T00:00:00.790Z,50.74
2016-05-13T00:01:00.792Z,50.74
2016-05-13T00:02:00.592Z,50.74
2016-05-13T00:03:00.454Z,50.74
2016-05-13T00:04:00.597Z,50.84
2016-05-13T00:05:00.413Z,50.65
2016-05-13T00:06:00.806Z,50.84
2016-05-13T00:07:00.824Z,50.65
2016-05-13T00:08:00.608Z,50.65
2016-05-13T00:09:00.705Z,50.55
2016-05-13T00:10:00.394Z,50.65
2016-05-13T00:11:00.397Z,50.74
2016-05-13T00:12:00.791Z,50.65
2016-05-13T00:13:00.794Z,50.93
2016-05-13T00:14:00.796Z,50.74
2016-05-13T00:15:00.799Z,50.74
2016-05-13T00:16:00.395Z,51.32
2016-05-13T00:17:00.617Z,50.74
2016-05-13T00:18:00.665Z,50.74
2016-05-13T00:19:00.450Z,51.03
2016-05-13T00:20:00.407Z,50.93
2016-05-13T00:21:00.612Z,50.93
2016-05-13T00:22:00.396Z,50.93
2016-05-13T00:23:00.633Z,50.93
2016-05-13T00:24:00.448Z,50.55
2016-05-13T00:25:00.404Z,50.62
2016-05-13T00:26:00.812Z,50.84
2016-05-13T00:27:00.597Z,50.74
2016-05-13T00:28:00.615Z,50.93
2016-05-13T00:29:00.399Z,50.93
2016-05-13T00:30:00.417Z,50.74
2016-05-13T00:31:00.811Z,51.03
2016-05-13T00:32:00.828Z,50.84
2016-05-13T00:33:00.614Z,51.1
2016-05-13T00:34:00.616Z,51.01
2016-05-13T00:35:00.619Z,51.2
2016-05-13T00:36:00.824Z,51.1
2016-05-13T00:37:00.608Z,51.01
2016-05-13T00:38:00.657Z,51.01
2016-05-13T00:39:00.816Z,51.1
2016-05-13T00:40:00.413Z,51.01
2016-05-13T00:41:00.822Z,51.1
2016-05-13T00:42:00.810Z,51.01
2016-05-13T00:43:00.405Z,51.1
2016-05-13T00:44:00.627Z,51.01
2016-05-13T00:45:00.817Z,50.81
2016-05-13T00:46:00.820Z,51.1
2016-05-13T00:47:00.807Z,51.1
2016-05-13T00:48:01.029Z,51.1
2016-05-13T00:49:00.624Z,51.01
2016-05-13T00:50:00.612Z,51.1
2016-05-13T00:51:00.817Z,50.91
2016-05-13T00:52:00.445Z,51.01
2016-05-13T00:53:00.620Z,51.01
2016-05-13T00:54:00.419Z,51.1
2016-05-13T00:55:00.813Z,51.29
2016-05-13T00:56:00.253Z,51.01
2016-05-13T00:57:00.615Z,51.49
2016-05-13T00:58:00.837Z,51.39
2016-05-13T00:59:00.823Z,51.39
2016-05-13T01:00:00.451Z,51.2
2016-05-13T01:01:00.813Z,51.39
2016-05-13T01:02:00.827Z,51.29
2016-05-13T01:03:00.529Z,51.39
2016-05-13T01:04:00.920Z,51.59
2016-05-13T01:05:00.762Z,51.29
2016-05-13T01:06:00.793Z,51.39
2016-05-13T01:07:01.034Z,51.39
2016-05-13T01:08:01.069Z,51.39
2016-05-13T01:09:01.072Z,51.17
2016-05-13T01:10:01.090Z,51.39
2016-05-13T01:11:01.092Z,51.29
2016-05-13T01:12:00.921Z,51.29
2016-05-13T01:13:01.116Z,51.46
2016-05-13T01:14:00.921Z,51.39
2016-05-13T01:15:00.930Z,51.29
2016-05-13T01:16:00.766Z,51.49
2016-05-13T01:17:00.945Z,51.49
2016-05-13T01:18:01.137Z,51.27
2016-05-13T01:19:00.986Z,51.39
2016-05-13T01:20:00.943Z,51.49
2016-05-13T01:21:00.948Z,51.46
2016-05-13T01:22:00.733Z,51.46
2016-05-13T01:23:00.956Z,51.29
2016-05-13T01:24:10.318Z,51.56
2016-05-13T01:25:00.947Z,51.56
2016-05-13T01:26:00.951Z,51.17
2016-05-13T01:27:00.953Z,51.59
2016-05-13T01:28:00.957Z,51.75
2016-05-13T01:29:01.148Z,51.56
2016-05-13T01:30:00.946Z,51.46
2016-05-13T01:31:01.154Z,51.56
2016-05-13T01:32:00.953Z,51.46
2016-05-13T01:33:00.799Z,51.56
2016-05-13T01:34:01.146Z,51.56
2016-05-13T01:35:01.148Z,51.27
2016-05-13T01:36:01.151Z,51.27
2016-05-13T01:37:01.155Z,51.37
2016-05-13T01:38:01.141Z,51.17
2016-05-13T01:39:00.957Z,51.07
2016-05-13T01:40:01.146Z,51.17
2016-05-13T01:41:00.743Z,51.27
2016-05-13T01:42:00.949Z,51.27
2016-05-13T01:43:01.154Z,51.37
2016-05-13T01:44:00.939Z,51.27
2016-05-13T01:45:01.160Z,51.37
2016-05-13T01:46:00.740Z,51.27
2016-05-13T01:47:00.947Z,51.46
2016-05-13T01:48:00.950Z,51.37
2016-05-13T01:49:01.156Z,51.37
2016-05-13T01:50:01.159Z,51.56
2016-05-13T01:51:00.739Z,51.56
2016-05-13T01:52:00.945Z,51.37
2016-05-13T01:53:00.744Z,51.65
2016-05-13T01:54:01.137Z,51.56
2016-05-13T01:55:00.936Z,51.56
2016-05-13T01:56:00.736Z,51.65
2016-05-13T01:57:00.739Z,51.53
2016-05-13T01:58:00.945Z,51.56
2016-05-13T01:59:01.151Z,51.56
2016-05-13T02:00:00.950Z,51.65
2016-05-13T02:01:00.750Z,51.63
2016-05-13T02:02:00.940Z,51.65
2016-05-13T02:03:00.943Z,51.63
2016-05-13T02:04:00.946Z,51.63
2016-05-13T02:05:00.746Z,51.44
2016-05-13T02:06:01.154Z,51.34
2016-05-13T02:07:00.938Z,51.85
2016-05-13T02:08:00.940Z,51.82
2016-05-13T02:09:01.147Z,51.85
2016-05-13T02:10:00.743Z,51.63
2016-05-13T02:11:01.137Z,51.73
2016-05-13T02:12:01.140Z,51.73
2016-05-13T02:13:00.938Z,51.73
2016-05-13T02:14:01.144Z,51.63
2016-05-13T02:15:00.990Z,51.63
2016-05-13T02:16:00.947Z,51.44
2016-05-13T02:17:00.934Z,51.73
2016-05-13T02:18:00.937Z,51.63
2016-05-13T02:19:00.939Z,51.44
2016-05-13T02:20:00.785Z,51.44
2016-05-13T02:21:00.725Z,51.53
2016-05-13T02:22:01.150Z,51.63
2016-05-13T02:23:00.934Z,51.25
2016-05-13T02:24:01.125Z,51.34
2016-05-13T02:25:00.924Z,51.63
2016-05-13T02:26:01.130Z,51.25
2016-05-13T02:27:01.133Z,51.73
2016-05-13T02:28:00.932Z,51.53
2016-05-13T02:29:00.716Z,51.44
2016-05-13T02:30:00.922Z,51.53
2016-05-13T02:31:00.925Z,51.44
2016-05-13T02:32:00.927Z,51.44
2016-05-13T02:33:00.821Z,51.73
2016-05-13T02:34:00.916Z,51.34
2016-05-13T02:35:00.919Z,51.63
2016-05-13T02:36:01.124Z,51.63
2016-05-13T02:37:00.924Z,51.53
2016-05-13T02:38:01.131Z,51.34
2016-05-13T02:39:00.930Z,51.44
2016-05-13T02:40:00.933Z,51.73
2016-05-13T02:41:00.920Z,51.44
2016-05-13T02:42:00.923Z,51.53
2016-05-13T02:43:00.926Z,51.44
2016-05-13T02:44:01.131Z,51.82
2016-05-13T02:45:00.915Z,51.44
2016-05-13T02:46:01.137Z,51.22
2016-05-13T02:47:00.920Z,51.63
2016-05-13T02:48:00.923Z,52.01
2016-05-13T02:49:00.707Z,51.41
2016-05-13T02:50:00.710Z,51.51
2016-05-13T02:51:00.916Z,51.61
2016-05-13T02:52:01.122Z,51.8
2016-05-13T02:53:00.920Z,51.61
2016-05-13T02:54:00.970Z,51.7
2016-05-13T02:55:01.114Z,51.7
2016-05-13T02:56:01.116Z,51.51
2016-05-13T02:57:01.120Z,51.32
2016-05-13T02:58:00.716Z,51.7
2016-05-13T02:59:00.906Z,51.8
2016-05-13T03:00:00.705Z,51.8
2016-05-13T03:01:01.099Z,51.8
2016-05-13T03:02:01.117Z,51.7
2016-05-13T03:03:00.541Z,51.99
2016-05-13T03:04:01.107Z,51.99
2016-05-13T03:05:00.703Z,51.7
2016-05-13T03:06:01.113Z,51.99
2016-05-13T03:07:01.099Z,51.8
2016-05-13T03:08:00.899Z,51.7
2016-05-13T03:09:01.105Z,51.8
2016-05-13T03:10:00.952Z,51.7
2016-05-13T03:11:00.954Z,51.8
2016-05-13T03:12:01.097Z,51.7
2016-05-13T03:13:01.099Z,51.99
2016-05-13T03:14:00.899Z,52.19
2016-05-13T03:15:01.105Z,51.89
2016-05-13T03:16:01.107Z,51.89
2016-05-13T03:17:00.923Z,51.89
2016-05-13T03:18:00.895Z,51.89
2016-05-13T03:19:00.897Z,51.89
2016-05-13T03:20:00.697Z,51.8
2016-05-13T03:21:01.089Z,52.09
2016-05-13T03:22:00.905Z,51.89
2016-05-13T03:23:00.893Z,52.09
2016-05-13T03:24:01.098Z,52.28
2016-05-13T03:25:00.898Z,52.09
2016-05-13T03:26:01.088Z,51.99
2016-05-13T03:27:00.887Z,51.89
2016-05-13T03:28:01.109Z,52.06
2016-05-13T03:29:00.892Z,52.19
2016-05-13T03:30:00.895Z,51.89
2016-05-13T03:31:00.883Z,51.87
2016-05-13T03:32:01.088Z,51.87
2016-05-13T03:33:00.872Z,51.97
2016-05-13T03:34:01.078Z,51.87
2016-05-13T03:35:00.878Z,51.97
2016-05-13T03:36:01.084Z,51.87
2016-05-13T03:37:01.071Z,51.87
2016-05-13T03:38:00.667Z,51.87
2016-05-13T03:39:00.716Z,51.87
2016-05-13T03:40:00.876Z,52.06
2016-05-13T03:41:00.878Z,52.06
2016-05-13T03:42:00.866Z,51.87
2016-05-13T03:43:00.868Z,51.97
2016-05-13T03:44:01.074Z,51.87
2016-05-13T03:45:01.077Z,51.97
2016-05-13T03:46:00.673Z,51.87
2016-05-13T03:47:01.066Z,51.97
2016-05-13T03:48:01.132Z,51.97
2016-05-13T03:49:00.853Z,51.97
2016-05-13T03:50:01.074Z,51.87
2016-05-13T03:51:01.062Z,51.87
2016-05-13T03:52:00.861Z,52.06
2016-05-13T03:53:01.067Z,51.97
2016-05-13T03:54:00.648Z,51.97
2016-05-13T03:55:01.057Z,51.97
2016-05-13T03:56:00.856Z,51.97
2016-05-13T03:57:00.859Z,51.97
2016-05-13T03:58:00.845Z,51.87
2016-05-13T03:59:00.489Z,52.16
2016-05-13T04:00:01.055Z,51.97
2016-05-13T04:01:00.838Z,51.97
2016-05-13T04:02:01.061Z,51.87
2016-05-13T04:03:00.641Z,51.94
2016-05-13T04:04:00.691Z,51.77
2016-05-13T04:05:00.849Z,51.87
2016-05-13T04:06:01.055Z,52.33
2016-05-13T04:07:00.635Z,51.94
2016-05-13T04:08:01.045Z,51.75
2016-05-13T04:09:00.829Z,51.84
2016-05-13T04:10:00.628Z,51.75
2016-05-13T04:11:00.834Z,51.75
2016-05-13T04:12:00.837Z,52.33
2016-05-13T04:13:01.043Z,51.75
2016-05-13T04:14:01.030Z,51.84
2016-05-13T04:15:00.470Z,52.33
2016-05-13T04:16:00.832Z,51.84
2016-05-13T04:17:01.037Z,51.56
2016-05-13T04:18:00.821Z,51.65
2016-05-13T04:19:01.027Z,52.42
2016-05-13T04:20:00.827Z,52.42
2016-05-13T04:21:00.674Z,52.42
2016-05-13T04:22:00.817Z,52.42
2016-05-13T04:23:01.023Z,52.42
2016-05-13T04:24:01.025Z,51.75
2016-05-13T04:25:00.825Z,51.84
2016-05-13T04:26:01.030Z,51.75
2016-05-13T04:27:00.815Z,51.84
2016-05-13T04:28:00.614Z,51.84
2016-05-13T04:29:01.023Z,51.75
2016-05-13T04:30:01.011Z,51.94
2016-05-13T04:31:00.606Z,51.75
2016-05-13T04:32:01.016Z,51.84
2016-05-13T04:33:00.658Z,51.75
2016-05-13T04:34:00.646Z,51.84
2016-05-13T04:35:00.602Z,52.42
2016-05-13T04:36:01.027Z,51.84
2016-05-13T04:37:00.638Z,52.33
2016-05-13T04:38:00.797Z,51.84
2016-05-13T04:39:00.644Z,51.94
2016-05-13T04:40:00.647Z,52.33
2016-05-13T04:41:00.602Z,51.75
2016-05-13T04:42:00.996Z,51.75
2016-05-13T04:43:00.998Z,51.94
2016-05-13T04:44:00.844Z,51.75
2016-05-13T04:45:00.596Z,51.75
2016-05-13T04:46:00.991Z,51.84
2016-05-13T04:47:00.635Z,51.75
2016-05-13T04:48:00.793Z,51.46
2016-05-13T04:49:00.576Z,51.94
2016-05-13T04:50:00.579Z,51.75
2016-05-13T04:51:00.987Z,52.33
2016-05-13T04:52:00.569Z,51.84
2016-05-13T04:53:00.807Z,51.75
2016-05-13T04:54:00.778Z,51.75
2016-05-13T04:55:00.780Z,51.75
2016-05-13T04:56:00.783Z,51.75
2016-05-13T04:57:00.770Z,51.84
2016-05-13T04:58:00.820Z,51.94
2016-05-13T04:59:00.760Z,51.75
2016-05-13T05:00:00.966Z,52.33
2016-05-13T05:01:00.765Z,51.75
2016-05-13T05:02:00.814Z,51.75
2016-05-13T05:03:00.958Z,51.84
2016-05-13T05:04:00.977Z,51.75
2016-05-13T05:05:00.605Z,52.42
2016-05-13T05:06:00.764Z,51.75
2016-05-13T05:07:00.563Z,51.82
2016-05-13T05:08:00.753Z,51.84
2016-05-13T05:09:00.755Z,51.82
2016-05-13T05:10:00.602Z,51.84
2016-05-13T05:11:00.963Z,51.92
2016-05-13T05:12:00.952Z,51.84
2016-05-13T05:13:00.954Z,51.53
2016-05-13T05:14:00.754Z,52.4
2016-05-13T05:15:00.741Z,51.62
2016-05-13T05:16:00.743Z,51.62
2016-05-13T05:17:00.949Z,52.3
2016-05-13T05:18:00.732Z,51.82
2016-05-13T05:19:00.938Z,51.72
2016-05-13T05:20:00.941Z,51.82
2016-05-13T05:21:00.944Z,51.72
2016-05-13T05:22:00.728Z,51.82
2016-05-13T05:23:00.731Z,51.72
2016-05-13T05:24:00.530Z,51.72
2016-05-13T05:25:00.737Z,51.82
2016-05-13T05:26:00.926Z,51.92
2016-05-13T05:27:00.929Z,51.82
2016-05-13T05:28:00.916Z,51.82
2016-05-13T05:29:00.919Z,52.2
2016-05-13T05:30:00.921Z,51.92
2016-05-13T05:31:00.517Z,51.92
2016-05-13T05:32:00.709Z,52.11
2016-05-13T05:33:00.914Z,51.92
2016-05-13T05:34:00.917Z,51.92
2016-05-13T05:35:00.513Z,51.82
2016-05-13T05:36:00.906Z,51.72
2016-05-13T05:37:00.722Z,51.82
2016-05-13T05:38:00.708Z,51.82
2016-05-13T05:39:00.508Z,51.92
2016-05-13T05:40:00.495Z,51.92
2016-05-13T05:41:00.702Z,51.92
2016-05-13T05:42:00.704Z,51.82
2016-05-13T05:43:00.691Z,51.72
2016-05-13T05:44:00.709Z,52.01
2016-05-13T05:45:00.899Z,52.01
2016-05-13T05:46:00.901Z,51.92
2016-05-13T05:47:00.904Z,51.82
2016-05-13T05:48:00.705Z,51.82
2016-05-13T05:49:00.691Z,51.92
2016-05-13T05:50:00.679Z,51.82
2016-05-13T05:51:00.321Z,51.92
2016-05-13T05:52:00.527Z,52.01
2016-05-13T05:53:00.874Z,51.62
2016-05-13T05:54:00.673Z,51.82
2016-05-13T05:55:00.676Z,51.62
2016-05-13T05:56:00.678Z,51.82
2016-05-13T05:57:00.870Z,51.92
2016-05-13T05:58:00.684Z,51.82
2016-05-13T05:59:00.875Z,51.82
2016-05-13T06:00:00.674Z,51.82
2016-05-13T06:01:00.864Z,51.92
2016-05-13T06:02:00.664Z,51.92
2016-05-13T06:03:00.728Z,51.82
2016-05-13T06:04:00.653Z,51.92
2016-05-13T06:05:00.875Z,51.92
2016-05-13T06:06:00.862Z,51.92
2016-05-13T06:07:00.489Z,51.72
2016-05-13T06:08:00.320Z,51.72
2016-05-13T06:09:00.652Z,51.72
2016-05-13T06:10:00.655Z,51.62
2016-05-13T06:11:00.438Z,51.72
2016-05-13T06:12:00.862Z,51.31
2016-05-13T06:13:00.490Z,51.53
2016-05-13T06:14:00.649Z,51.53
2016-05-13T06:15:00.480Z,51.43
2016-05-13T06:16:00.638Z,51.43
2016-05-13T06:17:00.844Z,51.34
2016-05-13T06:18:00.691Z,51.72
2016-05-13T06:19:00.632Z,51.34
2016-05-13T06:20:00.635Z,51.72
2016-05-13T06:21:00.840Z,51.43
2016-05-13T06:22:00.468Z,51.34
2016-05-13T06:23:00.830Z,52.01
2016-05-13T06:24:00.832Z,51.6
2016-05-13T06:25:00.616Z,51.62
2016-05-13T06:26:00.618Z,51.7
2016-05-13T06:27:00.825Z,51.6
2016-05-13T06:28:00.828Z,51.92
2016-05-13T06:29:00.612Z,51.92
2016-05-13T06:30:00.817Z,51.7
2016-05-13T06:31:00.617Z,51.82
2016-05-13T06:32:00.603Z,52.11
2016-05-13T06:33:00.263Z,52.11
2016-05-13T06:34:00.609Z,52.49
2016-05-13T06:35:00.611Z,52.2
2016-05-13T06:36:00.645Z,52.08
2016-05-13T06:37:00.805Z,52.3
2016-05-13T06:38:00.604Z,52.3
2016-05-13T06:39:00.592Z,52.3
2016-05-13T06:40:00.656Z,52.3
2016-05-13T06:41:00.393Z,52.4
2016-05-13T06:42:00.427Z,52.3
2016-05-13T06:43:00.790Z,52.4
2016-05-13T06:44:00.573Z,52.59
2016-05-13T06:45:00.576Z,52.59
2016-05-13T06:46:00.579Z,52.4
2016-05-13T06:47:00.785Z,52.4
2016-05-13T06:48:01.194Z,52.69
2016-05-13T06:49:00.587Z,52.3
2016-05-13T06:50:00.777Z,52.69
2016-05-13T06:51:00.217Z,52.3
2016-05-13T06:52:00.782Z,52.49
2016-05-13T06:53:00.566Z,52.49
2016-05-13T06:54:00.615Z,52.3
2016-05-13T06:55:00.571Z,52.4
2016-05-13T06:56:00.356Z,52.11
2016-05-13T06:57:00.202Z,52.11
2016-05-13T06:58:00.565Z,52.4
2016-05-13T06:59:00.567Z,52.11
2016-05-13T07:00:00.756Z,52.11
2016-05-13T07:01:00.776Z,52.2
2016-05-13T07:02:00.763Z,52.01
2016-05-13T07:03:00.562Z,52.11
2016-05-13T07:04:00.550Z,52.11
2016-05-13T07:05:00.755Z,52.01
2016-05-13T07:06:00.758Z,52.11
2016-05-13T07:07:00.745Z,51.53
2016-05-13T07:08:00.544Z,51.56
2016-05-13T07:09:00.734Z,51.75
2016-05-13T07:10:00.549Z,51.82
2016-05-13T07:11:00.740Z,51.94
2016-05-13T07:12:00.586Z,51.94
2016-05-13T07:13:00.369Z,51.94
2016-05-13T07:14:00.733Z,51.65
2016-05-13T07:15:00.344Z,51.46
2016-05-13T07:16:00.332Z,51.36
2016-05-13T07:17:00.569Z,51.36
2016-05-13T07:18:00.743Z,51.46
2016-05-13T07:19:00.526Z,51.46
2016-05-13T07:20:00.530Z,51.36
2016-05-13T07:21:00.313Z,51.36
2016-05-13T07:22:00.519Z,50.98
2016-05-13T07:23:00.319Z,51.26
2016-05-13T07:24:00.322Z,51.26
2016-05-13T07:25:00.715Z,51.17
2016-05-13T07:26:00.514Z,50.88
2016-05-13T07:27:00.705Z,50.78
2016-05-13T07:28:00.285Z,51.07
2016-05-13T07:29:00.695Z,50.98
2016-05-13T07:30:00.510Z,50.78
2016-05-13T07:31:00.700Z,50.59
2016-05-13T07:32:00.718Z,50.78
2016-05-13T07:33:00.315Z,50.69
2016-05-13T07:34:00.708Z,50.78
2016-05-13T07:35:00.695Z,50.78
2016-05-13T07:36:00.291Z,50.59
2016-05-13T07:37:00.528Z,50.78
2016-05-13T07:38:00.500Z,50.49
2016-05-13T07:39:00.690Z,50.3
2016-05-13T07:40:00.474Z,50.59
2016-05-13T07:41:00.492Z,50.78
2016-05-13T07:42:00.480Z,50.59
2016-05-13T07:43:00.483Z,50.49
2016-05-13T07:44:00.283Z,50.78
2016-05-13T07:45:00.472Z,50.69
2016-05-13T07:46:00.677Z,50.4
2016-05-13T07:47:00.274Z,50.3
2016-05-13T07:48:00.121Z,50.49
2016-05-13T07:49:00.311Z,50.13
2016-05-13T07:50:00.674Z,50.3
2016-05-13T07:51:00.660Z,50.21
2016-05-13T07:52:00.507Z,50.21
2016-05-13T07:53:00.650Z,50.21
2016-05-13T07:54:00.449Z,50.4
2016-05-13T07:55:00.671Z,50.04
2016-05-13T07:56:00.673Z,50.3
2016-05-13T07:57:00.442Z,50.32
2016-05-13T07:58:00.460Z,50.4
2016-05-13T07:59:00.448Z,50.32
2016-05-13T08:00:00.450Z,50.52
2016-05-13T08:01:00.437Z,50.23
2016-05-13T08:02:00.440Z,50.42
2016-05-13T08:03:01.020Z,50.23
2016-05-13T08:04:00.445Z,50.32
2016-05-13T08:05:00.291Z,49.94
2016-05-13T08:06:00.654Z,49.94
2016-05-13T08:07:00.453Z,50.42
2016-05-13T08:08:00.222Z,50.23
2016-05-13T08:09:00.662Z,50.04
2016-05-13T08:10:00.446Z,50.23
2016-05-13T08:11:00.636Z,50.13
2016-05-13T08:12:00.278Z,50.13
2016-05-13T08:13:00.219Z,50.04
2016-05-13T08:14:00.425Z,49.84
2016-05-13T08:15:00.428Z,49.94
2016-05-13T08:16:00.212Z,49.94
2016-05-13T08:17:00.417Z,50.04
2016-05-13T08:18:00.405Z,50.04
2016-05-13T08:19:00.423Z,50.23
2016-05-13T08:20:00.613Z,50.13
2016-05-13T08:21:00.210Z,49.94
2016-05-13T08:22:00.259Z,50.04
2016-05-13T08:23:00.216Z,50.23
2016-05-13T08:24:00.405Z,50.32
2016-05-13T08:25:00.407Z,50.23
2016-05-13T08:26:00.396Z,50.23
2016-05-13T08:27:00.398Z,50.32
2016-05-13T08:28:00.401Z,50.13
2016-05-13T08:29:00.606Z,50.52
2016-05-13T08:30:00.406Z,50.23
2016-05-13T08:31:00.815Z,50.04
2016-05-13T08:32:00.395Z,50.32
2016-05-13T08:33:00.742Z,50.32
2016-05-13T08:34:00.026Z,50.52
2016-05-13T08:35:00.387Z,50.23
2016-05-13T08:36:00.593Z,50.32
2016-05-13T08:37:00.378Z,50.62
2016-05-13T08:38:00.584Z,50.62
2016-05-13T08:39:00.384Z,50.23
2016-05-13T08:40:00.386Z,50.23
2016-05-13T08:41:00.373Z,50.32
2016-05-13T08:42:00.391Z,50.42
2016-05-13T08:43:00.378Z,50.71
2016-05-13T08:44:00.162Z,50.81
2016-05-13T08:45:00.383Z,50.52
2016-05-13T08:46:00.574Z,51
2016-05-13T08:47:00.577Z,50.71
2016-05-13T08:48:00.580Z,50.52
2016-05-13T08:49:00.582Z,51.29
2016-05-13T08:50:00.366Z,51.2
2016-05-13T08:51:00.368Z,51.29
2016-05-13T08:52:00.371Z,51.29
2016-05-13T08:53:00.561Z,50.71
2016-05-13T08:54:00.189Z,50.71
2016-05-13T08:55:00.363Z,51
2016-05-13T08:56:00.554Z,51.2
2016-05-13T08:57:00.557Z,50.84
2016-05-13T08:58:00.559Z,50.81
2016-05-13T08:59:00.562Z,50.9
2016-05-13T09:00:00.362Z,51.61
2016-05-13T09:01:00.552Z,50.93
2016-05-13T09:02:00.351Z,51.32
2016-05-13T09:03:00.541Z,51.41
2016-05-13T09:04:00.356Z,51.32
2016-05-13T09:05:00.140Z,51.32
2016-05-13T09:06:00.534Z,50.84
2016-05-13T09:07:00.333Z,50.93
2016-05-13T09:08:00.336Z,50.93
2016-05-13T09:09:00.542Z,50.74
2016-05-13T09:10:00.342Z,50.74
2016-05-13T09:11:00.328Z,50.64
2016-05-13T09:12:00.534Z,50.64
2016-05-13T09:13:00.350Z,50.64
2016-05-13T09:14:00.540Z,50.54
2016-05-13T09:15:00.167Z,50.64
2016-05-13T09:16:00.530Z,50.45
2016-05-13T09:17:00.110Z,50.35
2016-05-13T09:18:00.550Z,50.45
2016-05-13T09:19:00.522Z,50.35
2016-05-13T09:20:00.525Z,50.74
2016-05-13T09:21:00.308Z,50.54
2016-05-13T09:22:00.311Z,50.64
2016-05-13T09:23:00.533Z,50.26
2016-05-13T09:24:00.332Z,50.26
2016-05-13T09:25:00.319Z,50.26
2016-05-13T09:25:59.947Z,50.35
2016-05-13T09:27:00.153Z,50.26
2016-05-13T09:27:59.952Z,50.16
2016-05-13T09:29:00.361Z,50.35
2016-05-13T09:30:00.504Z,49.96
2016-05-13T09:31:00.101Z,50.06
2016-05-13T09:32:00.088Z,49.68
2016-05-13T09:33:00.310Z,50.06
2016-05-13T09:34:00.499Z,50.16
2016-05-13T09:35:00.299Z,50.26
2016-05-13T09:36:00.349Z,50.16
2016-05-13T09:37:00.086Z,50.06
2016-05-13T09:38:00.307Z,49.77
2016-05-13T09:39:00.294Z,49.96
2016-05-13T09:40:00.360Z,49.39
2016-05-13T09:41:00.284Z,49.68
2016-05-13T09:42:00.490Z,49.39
2016-05-13T09:43:00.227Z,49.39
2016-05-13T09:44:01.136Z,49.19
2016-05-13T09:45:00.498Z,49.39
2016-05-13T09:46:00.297Z,49.48
2016-05-13T09:47:00.081Z,49.32
2016-05-13T09:48:00.287Z,49.48
2016-05-13T09:49:01.555Z,49.58
2016-05-13T09:50:00.433Z,49.58
2016-05-13T09:51:00.483Z,49.6
2016-05-13T09:52:00.282Z,49.77
2016-05-13T09:53:00.113Z,49.7
2016-05-13T09:54:00.475Z,49.68
2016-05-13T09:55:00.477Z,49.77
2016-05-13T09:56:00.480Z,49.58
2016-05-13T09:57:00.280Z,49.48
2016-05-13T09:58:00.267Z,49.7
2016-05-13T09:59:00.474Z,49.58
2016-05-13T09:59:59.913Z,49.68
2016-05-13T10:01:00.479Z,49.6
2016-05-13T10:02:00.262Z,49.41
2016-05-13T10:03:00.265Z,49.51
2016-05-13T10:04:00.471Z,49.51
2016-05-13T10:05:00.051Z,49.7
2016-05-13T10:06:00.257Z,49.6
2016-05-13T10:07:00.245Z,49.6
2016-05-13T10:08:00.266Z,49.7
2016-05-13T10:09:00.109Z,49.6
2016-05-13T10:10:00.560Z,49.51
2016-05-13T10:11:00.590Z,49.51
2016-05-13T10:12:00.448Z,49.6
2016-05-13T10:13:00.310Z,49.51
2016-05-13T10:14:00.484Z,49.22
2016-05-13T10:15:00.486Z,49.32
2016-05-13T10:16:00.722Z,48.74
2016-05-13T10:17:00.522Z,49.02
2016-05-13T10:18:00.739Z,49.12
2016-05-13T10:19:00.543Z,48.74
2016-05-13T10:20:00.333Z,48.64
2016-05-13T10:21:00.544Z,49.02
2016-05-13T10:22:00.552Z,49.12
2016-05-13T10:23:00.762Z,49.32
2016-05-13T10:24:00.766Z,49.32
2016-05-13T10:25:00.552Z,48.83
2016-05-13T10:26:00.557Z,48.93
2016-05-13T10:27:00.562Z,49.02
2016-05-13T10:28:00.768Z,49.12
2016-05-13T10:29:00.757Z,48.93
2016-05-13T10:30:00.557Z,49.12
2016-05-13T10:31:00.560Z,49.12
2016-05-13T10:32:00.548Z,48.83
2016-05-13T10:33:00.739Z,48.64
2016-05-13T10:34:00.554Z,48.64
2016-05-13T10:35:00.557Z,48.93
2016-05-13T10:36:00.592Z,48.66
2016-05-13T10:37:00.548Z,48.83
2016-05-13T10:38:00.550Z,48.66
2016-05-13T10:39:00.756Z,48.76
2016-05-13T10:40:00.556Z,48.76
2016-05-13T10:41:00.544Z,48.47
2016-05-13T10:42:00.546Z,48.28
2016-05-13T10:43:00.596Z,48.18
2016-05-13T10:44:04.036Z,48.08
2016-05-13T10:45:00.335Z,48.18
2016-05-13T10:46:00.541Z,48.08
2016-05-13T10:47:00.746Z,47.99
2016-05-13T10:48:00.687Z,47.7
2016-05-13T10:49:00.737Z,47.8
2016-05-13T10:50:00.333Z,48.08
2016-05-13T10:51:00.743Z,47.22
2016-05-13T10:52:00.746Z,46.92
2016-05-13T10:53:00.544Z,47.41
2016-05-13T10:54:00.734Z,47.6
2016-05-13T10:55:00.534Z,47.31
2016-05-13T10:56:00.396Z,47.6
2016-05-13T10:57:00.726Z,47.99
2016-05-13T10:58:00.730Z,47.6
2016-05-13T10:59:00.576Z,47.89
2016-05-13T11:00:00.734Z,47.22
2016-05-13T11:01:00.722Z,47.41
2016-05-13T11:02:00.334Z,47.41
2016-05-13T11:03:00.571Z,47.31
2016-05-13T11:04:00.589Z,47.22
2016-05-13T11:05:00.342Z,47.41
2016-05-13T11:06:00.533Z,47.31
2016-05-13T11:07:00.519Z,47.31
2016-05-13T11:08:00.709Z,47.02
2016-05-13T11:09:00.150Z,47.41
2016-05-13T11:10:00.512Z,47.5
2016-05-13T11:11:00.717Z,48.11
2016-05-13T11:12:00.361Z,47.7
2016-05-13T11:13:00.520Z,47.6
2016-05-13T11:14:00.350Z,47.33
2016-05-13T11:15:00.307Z,47.14
2016-05-13T11:16:00.715Z,47.8
2016-05-13T11:17:00.515Z,47.53
2016-05-13T11:18:01.096Z,47.12
2016-05-13T11:19:00.708Z,47.33
2016-05-13T11:20:00.491Z,47.05
2016-05-13T11:21:00.338Z,47.99
2016-05-13T11:22:00.544Z,47.81
2016-05-13T11:23:00.547Z,47.6
2016-05-13T11:24:00.440Z,47.81
2016-05-13T11:25:00.693Z,48.01
2016-05-13T11:26:00.290Z,47.24
2016-05-13T11:27:00.698Z,47.33
2016-05-13T11:28:00.701Z,47.43
2016-05-13T11:29:00.501Z,47.33
2016-05-13T11:30:00.300Z,47.91
2016-05-13T11:31:00.490Z,47.24
2016-05-13T11:32:00.696Z,47.33
2016-05-13T11:33:00.776Z,47.43
2016-05-13T11:34:01.404Z,48.11
2016-05-13T11:35:00.282Z,47.91
2016-05-13T11:36:00.691Z,48.3
2016-05-13T11:37:00.694Z,48.01
2016-05-13T11:38:00.275Z,48.01
2016-05-13T11:39:00.481Z,47.91
2016-05-13T11:40:00.483Z,47.91
2016-05-13T11:41:00.689Z,47.24
2016-05-13T11:42:00.691Z,47.24
2016-05-13T11:43:00.475Z,47.63
2016-05-13T11:44:00.275Z,47.63
2016-05-13T11:45:00.324Z,47.91
2016-05-13T11:46:00.686Z,47.81
2016-05-13T11:47:00.471Z,47.43
2016-05-13T11:48:01.036Z,48.21
2016-05-13T11:49:00.492Z,48.3
2016-05-13T11:50:00.495Z,48.11
2016-05-13T11:51:00.482Z,47.43
2016-05-13T11:52:00.484Z,47.05
2016-05-13T11:53:00.315Z,47.33
2016-05-13T11:54:00.271Z,47.43
2016-05-13T11:55:00.461Z,45.98
2016-05-13T11:56:00.682Z,47.14
2016-05-13T11:57:00.466Z,46.95
2016-05-13T11:58:00.673Z,46.66
2016-05-13T11:59:00.675Z,45.98
2016-05-13T12:00:00.271Z,46.37
2016-05-13T12:01:00.695Z,46.08
2016-05-13T12:02:00.668Z,46.27
2016-05-13T12:03:00.623Z,46.49
2016-05-13T12:04:00.329Z,45.89
2016-05-13T12:05:00.473Z,45.89
2016-05-13T12:06:00.475Z,46.68
2016-05-13T12:07:00.462Z,46.37
2016-05-13T12:08:00.465Z,46.58
2016-05-13T12:09:00.670Z,46.17
2016-05-13T12:10:00.470Z,46.85
2016-05-13T12:11:00.676Z,46.37
2016-05-13T12:12:00.663Z,46.85
2016-05-13T12:13:00.463Z,46.95
2016-05-13T12:14:00.449Z,46.85
2016-05-13T12:15:02.374Z,46.78
2016-05-13T12:16:00.455Z,47.16
2016-05-13T12:17:00.458Z,46.68
2016-05-13T12:18:00.257Z,47.07
2016-05-13T12:19:00.463Z,46.97
2016-05-13T12:20:00.653Z,48.13
2016-05-13T12:21:00.656Z,47.94
2016-05-13T12:22:00.299Z,47.74
2016-05-13T12:23:00.474Z,47.45
2016-05-13T12:24:00.445Z,47.26
2016-05-13T12:25:00.652Z,47.45
2016-05-13T12:26:00.466Z,46.97
2016-05-13T12:27:00.657Z,46.97
2016-05-13T12:28:00.504Z,47.45
2016-05-13T12:29:00.443Z,46.88
2016-05-13T12:30:00.274Z,46.58
2016-05-13T12:31:00.652Z,46.88
2016-05-13T12:32:00.435Z,46.68
2016-05-13T12:33:00.548Z,46.78
2016-05-13T12:34:00.441Z,46.58
2016-05-13T12:35:00.443Z,46.49
2016-05-13T12:36:00.446Z,46.97
2016-05-13T12:37:00.449Z,47.07
2016-05-13T12:38:00.248Z,46
2016-05-13T12:39:00.721Z,46
2016-05-13T12:40:00.442Z,46.2
2016-05-13T12:41:00.491Z,46.2
2016-05-13T12:42:00.448Z,47.16
2016-05-13T12:43:00.450Z,46.68
2016-05-13T12:44:00.656Z,46.68
2016-05-13T12:45:00.440Z,46.88
2016-05-13T12:46:00.645Z,47.45
2016-05-13T12:47:00.445Z,47.36
2016-05-13T12:48:00.307Z,46.97
2016-05-13T12:49:00.653Z,46.97
2016-05-13T12:50:00.438Z,47.74
2016-05-13T12:51:00.440Z,48.03
2016-05-13T12:52:00.489Z,47.16
2016-05-13T12:53:00.446Z,47.07
2016-05-13T12:54:00.244Z,47.07
2016-05-13T12:55:00.482Z,47.19